Time;durP1;ratioP1;P1;durP2;ratioP2;P2;SDS_P1;SDS_P2;PMS_P1;PMS_P2;Temp;Humidity;BMP_temperature;BMP_pressure;BME280_temperature;BME280_humidity;BME280_pressure;Samples;Min_cycle;Max_cycle;Signal;HPM_P1;HPM_P2
2023/05/23 00:02:16;;;;;;;16.15;10.45;;;;;;;;;;5068470;28;20385;-61
2023/05/23 00:04:42;;;;;;;13.32;9.77;;;;;;;;;;5070767;28;20116;-60
2023/05/23 00:07:07;;;;;;;14.25;10.80;;;;;;;;;;5070587;28;20058;-60
2023/05/23 00:09:33;;;;;;;16.20;10.10;;;;;;;;;;5071503;28;20029;-60
2023/05/23 00:11:59;;;;;;;14.55;9.95;;;;;;;;;;5070328;28;20451;-60
2023/05/23 00:14:25;;;;;;;13.52;9.40;;;;;;;;;;5060882;28;20051;-60
2023/05/23 00:16:50;;;;;;;13.20;9.52;;;;;;;;;;5067160;28;21009;-60
2023/05/23 00:19:16;;;;;;;15.15;9.00;;;;;;;;;;5072577;28;20043;-60
2023/05/23 00:21:43;;;;;;;13.45;9.70;;;;;;;;;;5064054;28;20025;-60
2023/05/23 00:24:09;;;;;;;13.77;8.82;;;;;;;;;;5054091;28;20036;-61
2023/05/23 00:26:35;;;;;;;10.75;7.85;;;;;;;;;;5066332;28;20067;-60
2023/05/23 00:29:00;;;;;;;11.25;7.43;;;;;;;;;;5071518;28;20036;-60
2023/05/23 00:31:26;;;;;;;7.15;5.30;;;;;;;;;;5072750;28;20025;-60
2023/05/23 00:33:51;;;;;;;7.55;6.03;;;;;;;;;;5070980;28;20619;-60
2023/05/23 00:36:17;;;;;;;9.32;5.88;;;;;;;;;;5069777;28;20088;-60
2023/05/23 00:38:44;;;;;;;8.85;6.05;;;;;;;;;;5053445;28;20120;-61
2023/05/23 00:41:10;;;;;;;7.18;5.55;;;;;;;;;;5073092;28;20036;-61
2023/05/23 00:43:36;;;;;;;10.25;6.30;;;;;;;;;;5072694;28;20385;-60
2023/05/23 00:46:01;;;;;;;8.13;6.03;;;;;;;;;;5070060;28;20179;-60
2023/05/23 00:48:27;;;;;;;8.55;5.78;;;;;;;;;;5068117;28;20396;-60
2023/05/23 00:50:54;;;;;;;7.47;5.68;;;;;;;;;;5070286;28;20497;-61
2023/05/23 00:53:20;;;;;;;8.98;5.82;;;;;;;;;;5067243;28;20021;-61
2023/05/23 00:55:45;;;;;;;9.35;6.07;;;;;;;;;;5060981;28;20086;-60
2023/05/23 00:58:13;;;;;;;8.65;6.13;;;;;;;;;;5072833;28;20063;-60
2023/05/23 01:00:40;;;;;;;8.95;6.00;;;;;;;;;;5070218;28;20036;-60
2023/05/23 01:03:06;;;;;;;8.15;5.60;;;;;;;;;;5071049;28;20036;-60
2023/05/23 01:05:31;;;;;;;7.55;5.78;;;;;;;;;;5070255;28;20078;-60
2023/05/23 01:07:56;;;;;;;9.43;6.15;;;;;;;;;;5063587;28;20340;-61
2023/05/23 01:10:28;;;;;;;9.40;6.75;;;;;;;;;;5071703;28;20529;-61
2023/05/23 01:13:02;;;;;;;9.68;6.88;;;;;;;;;;5068012;28;20039;-62
2023/05/23 01:15:44;;;;;;;9.88;6.68;;;;;;;;;;5072378;28;20119;-61
2023/05/23 01:18:18;;;;;;;9.70;6.88;;;;;;;;;;5071745;28;20514;-61
2023/05/23 01:20:54;;;;;;;9.98;6.13;;;;;;;;;;5071000;28;20382;-60
2023/05/23 01:23:36;;;;;;;11.02;7.03;;;;;;;;;;5069957;28;20096;-60
2023/05/23 01:26:10;;;;;;;9.10;6.05;;;;;;;;;;5070854;28;20384;-61
2023/05/23 01:28:47;;;;;;;9.75;6.05;;;;;;;;;;5072023;28;20036;-60
2023/05/23 01:31:15;;;;;;;9.10;6.25;;;;;;;;;;5072202;28;20034;-61
2023/05/23 01:33:42;;;;;;;9.32;6.15;;;;;;;;;;5068412;28;20051;-60
2023/05/23 01:36:08;;;;;;;9.25;6.50;;;;;;;;;;5071687;28;20037;-60
2023/05/23 01:38:33;;;;;;;9.90;6.43;;;;;;;;;;5070946;28;20032;-60
2023/05/23 01:40:59;;;;;;;9.20;6.40;;;;;;;;;;5069756;28;20200;-60
2023/05/23 01:43:25;;;;;;;9.02;6.38;;;;;;;;;;5072510;28;20027;-60
2023/05/23 01:45:55;;;;;;;9.52;6.15;;;;;;;;;;5068437;28;20031;-60
2023/05/23 01:48:20;;;;;;;9.77;6.40;;;;;;;;;;5070238;28;20499;-60
2023/05/23 01:50:46;;;;;;;10.60;6.55;;;;;;;;;;5054575;28;20037;-60
2023/05/23 01:53:14;;;;;;;11.30;6.38;;;;;;;;;;5056329;28;20480;-61
2023/05/23 01:55:41;;;;;;;10.65;6.68;;;;;;;;;;5066934;28;20028;-60
2023/05/23 01:58:07;;;;;;;10.55;7.10;;;;;;;;;;5068719;28;20032;-60
2023/05/23 02:00:32;;;;;;;9.18;6.35;;;;;;;;;;5072187;28;20038;-61
2023/05/23 02:02:58;;;;;;;11.57;7.03;;;;;;;;;;5070492;28;20044;-60
2023/05/23 02:05:23;;;;;;;10.90;7.50;;;;;;;;;;5070204;28;20111;-61
2023/05/23 02:07:49;;;;;;;11.25;7.65;;;;;;;;;;5068993;28;20441;-60
2023/05/23 02:10:14;;;;;;;10.20;7.57;;;;;;;;;;5069052;28;20036;-62
2023/05/23 02:12:40;;;;;;;11.77;7.85;;;;;;;;;;5069551;28;20437;-60
2023/05/23 02:15:06;;;;;;;13.77;8.32;;;;;;;;;;5071581;28;20086;-61
2023/05/23 02:17:31;;;;;;;12.77;8.32;;;;;;;;;;5065642;28;20139;-60
2023/05/23 02:19:57;;;;;;;13.32;8.25;;;;;;;;;;5060673;28;20100;-60
2023/05/23 02:22:26;;;;;;;13.75;8.32;;;;;;;;;;5069058;28;20028;-60
2023/05/23 02:24:51;;;;;;;14.70;9.20;;;;;;;;;;5066132;28;20044;-60
2023/05/23 02:27:17;;;;;;;15.38;9.27;;;;;;;;;;5062962;28;20051;-60
2023/05/23 02:29:43;;;;;;;12.85;9.20;;;;;;;;;;5069667;28;20032;-60
2023/05/23 02:32:08;;;;;;;12.70;8.80;;;;;;;;;;5070704;28;20346;-60
2023/05/23 02:34:34;;;;;;;14.40;9.27;;;;;;;;;;5070467;28;20020;-60
2023/05/23 02:36:59;;;;;;;12.70;9.13;;;;;;;;;;5071223;28;20696;-60
2023/05/23 02:39:26;;;;;;;14.75;9.52;;;;;;;;;;5066857;28;20127;-60
2023/05/23 02:41:51;;;;;;;14.70;10.05;;;;;;;;;;5069723;28;20381;-60
2023/05/23 02:44:18;;;;;;;17.42;10.35;;;;;;;;;;5066585;28;20037;-60
2023/05/23 02:46:45;;;;;;;15.77;10.07;;;;;;;;;;5058177;28;20045;-60
2023/05/23 02:49:10;;;;;;;19.42;10.32;;;;;;;;;;5051334;28;20123;-60
2023/05/23 02:51:36;;;;;;;17.90;10.32;;;;;;;;;;5067554;28;20039;-60
2023/05/23 02:54:01;;;;;;;18.27;11.77;;;;;;;;;;5069153;28;20028;-60
2023/05/23 02:56:27;;;;;;;16.70;11.07;;;;;;;;;;5070662;28;20032;-60
2023/05/23 02:58:52;;;;;;;16.45;11.40;;;;;;;;;;5069482;28;20032;-61
2023/05/23 03:01:18;;;;;;;17.45;10.73;;;;;;;;;;5068066;28;20033;-60
2023/05/23 03:03:44;;;;;;;18.13;10.75;;;;;;;;;;5070997;28;20032;-60
2023/05/23 03:06:13;;;;;;;19.88;12.75;;;;;;;;;;5068653;28;20044;-60
2023/05/23 03:08:39;;;;;;;18.48;11.23;;;;;;;;;;5069506;28;20028;-60
2023/05/23 03:11:04;;;;;;;19.10;10.07;;;;;;;;;;5071896;28;20594;-60
2023/05/23 03:13:30;;;;;;;17.67;9.77;;;;;;;;;;5071382;28;20073;-60
2023/05/23 03:15:55;;;;;;;15.77;10.38;;;;;;;;;;5073802;28;20567;-60
2023/05/23 03:18:20;;;;;;;18.42;10.20;;;;;;;;;;5072750;28;20392;-60
2023/05/23 03:20:46;;;;;;;17.83;10.45;;;;;;;;;;5074297;28;20159;-60
2023/05/23 03:23:11;;;;;;;17.45;9.88;;;;;;;;;;5073668;28;20068;-60
2023/05/23 03:25:37;;;;;;;16.98;9.73;;;;;;;;;;5071952;28;20037;-60
2023/05/23 03:28:02;;;;;;;15.55;9.35;;;;;;;;;;5070622;28;20032;-60
2023/05/23 03:30:28;;;;;;;12.68;8.80;;;;;;;;;;5073018;28;20064;-60
2023/05/23 03:32:53;;;;;;;16.92;9.02;;;;;;;;;;5073568;28;20028;-60
2023/05/23 03:35:18;;;;;;;15.23;9.15;;;;;;;;;;5073565;28;20037;-60
2023/05/23 03:37:44;;;;;;;16.90;10.13;;;;;;;;;;5070916;28;20028;-60
2023/05/23 03:40:09;;;;;;;18.52;9.85;;;;;;;;;;5071579;28;20055;-60
2023/05/23 03:42:35;;;;;;;15.40;8.65;;;;;;;;;;5074524;28;20127;-61
2023/05/23 03:45:01;;;;;;;16.08;8.48;;;;;;;;;;5073982;28;20036;-60
2023/05/23 03:47:26;;;;;;;15.77;9.52;;;;;;;;;;5072775;28;20078;-60
2023/05/23 03:49:52;;;;;;;19.08;10.15;;;;;;;;;;5073061;28;20051;-60
2023/05/23 03:52:17;;;;;;;17.00;10.18;;;;;;;;;;5074647;28;20139;-61
2023/05/23 03:54:43;;;;;;;18.40;10.88;;;;;;;;;;5073632;28;20074;-60
2023/05/23 03:57:08;;;;;;;17.63;11.27;;;;;;;;;;5073838;28;20489;-61
2023/05/23 03:59:34;;;;;;;18.33;11.90;;;;;;;;;;5074627;28;20024;-61
2023/05/23 04:01:59;;;;;;;19.63;11.30;;;;;;;;;;5072364;28;20040;-60
2023/05/23 04:04:26;;;;;;;20.33;11.00;;;;;;;;;;5072796;28;20052;-61
2023/05/23 04:06:52;;;;;;;18.42;11.00;;;;;;;;;;5072644;28;20055;-60
2023/05/23 04:09:17;;;;;;;16.52;11.02;;;;;;;;;;5074580;28;20473;-60
2023/05/23 04:11:43;;;;;;;18.50;11.68;;;;;;;;;;5074166;28;20052;-60
2023/05/23 04:14:09;;;;;;;19.20;12.10;;;;;;;;;;5073455;28;20028;-60
2023/05/23 04:16:36;;;;;;;20.60;13.50;;;;;;;;;;5071744;28;20025;-61
2023/05/23 04:19:03;;;;;;;23.35;14.60;;;;;;;;;;5072416;28;20044;-60
2023/05/23 04:21:29;;;;;;;21.08;13.50;;;;;;;;;;5073178;28;20066;-60
2023/05/23 04:23:55;;;;;;;23.67;15.23;;;;;;;;;;5073398;28;20116;-60
2023/05/23 04:26:21;;;;;;;20.05;14.07;;;;;;;;;;5074262;28;20056;-60
2023/05/23 04:28:47;;;;;;;20.50;13.23;;;;;;;;;;5072479;28;20024;-60
2023/05/23 04:31:13;;;;;;;15.70;10.75;;;;;;;;;;5073800;28;20090;-60
2023/05/23 04:33:38;;;;;;;15.68;10.43;;;;;;;;;;5072890;28;20037;-60
2023/05/23 04:36:07;;;;;;;20.13;11.65;;;;;;;;;;5053029;28;20029;-61
2023/05/23 04:38:33;;;;;;;21.15;11.50;;;;;;;;;;5059869;28;20048;-61
2023/05/23 04:40:58;;;;;;;26.02;13.10;;;;;;;;;;5070062;28;20493;-60
2023/05/23 04:43:26;;;;;;;23.30;13.00;;;;;;;;;;5073487;28;20040;-60
2023/05/23 04:45:53;;;;;;;25.27;14.18;;;;;;;;;;5072980;28;20071;-60
2023/05/23 04:48:20;;;;;;;25.73;14.95;;;;;;;;;;5073804;28;20029;-60
2023/05/23 04:50:46;;;;;;;26.48;15.10;;;;;;;;;;5072377;28;20087;-60
2023/05/23 04:53:12;;;;;;;24.02;13.82;;;;;;;;;;5056368;28;20037;-60
2023/05/23 04:55:37;;;;;;;23.58;13.93;;;;;;;;;;5060736;28;20047;-62
2023/05/23 04:58:03;;;;;;;20.55;13.55;;;;;;;;;;5070913;28;20033;-62
2023/05/23 05:00:29;;;;;;;22.55;13.05;;;;;;;;;;5071003;28;20464;-60
2023/05/23 05:02:55;;;;;;;21.35;12.40;;;;;;;;;;5070657;28;20475;-61
2023/05/23 05:05:20;;;;;;;22.52;12.82;;;;;;;;;;5068747;28;20028;-61
2023/05/23 05:07:45;;;;;;;22.33;11.50;;;;;;;;;;5082747;28;20071;-61
2023/05/23 05:10:15;;;;;;;24.38;12.75;;;;;;;;;;5092727;28;20155;-61
2023/05/23 05:12:45;;;;;;;21.27;11.38;;;;;;;;;;5074780;28;20028;-61
2023/05/23 05:15:12;;;;;;;22.10;11.77;;;;;;;;;;5070706;28;20063;-61
2023/05/23 05:17:38;;;;;;;19.20;11.57;;;;;;;;;;5072913;28;20462;-60
2023/05/23 05:20:07;;;;;;;22.08;10.68;;;;;;;;;;5072350;28;20115;-60
2023/05/23 05:22:42;;;;;;;20.40;10.88;;;;;;;;;;5067054;28;20024;-60
2023/05/23 05:25:09;;;;;;;23.58;10.73;;;;;;;;;;5072348;28;20123;-61
2023/05/23 05:27:36;;;;;;;20.20;11.43;;;;;;;;;;5064562;28;20070;-60
2023/05/23 05:30:07;;;;;;;20.48;11.85;;;;;;;;;;5071684;28;20033;-64
2023/05/23 05:32:33;;;;;;;;;;;;;;;;;;5065582;28;20017;-60
2023/05/23 05:34:59;;;;;;;23.70;13.00;;;;;;;;;;5067526;28;19935;-60
2023/05/23 05:37:25;;;;;;;23.38;12.38;;;;;;;;;;5071837;28;20060;-63
2023/05/23 05:39:52;;;;;;;24.73;12.52;;;;;;;;;;5072156;28;20097;-61
2023/05/23 05:42:17;;;;;;;22.15;13.32;;;;;;;;;;5072630;28;20036;-59
2023/05/23 05:44:43;;;;;;;26.95;14.00;;;;;;;;;;5072644;28;20366;-59
2023/05/23 05:47:08;;;;;;;22.60;14.00;;;;;;;;;;5071660;28;20028;-59
2023/05/23 05:49:33;;;;;;;22.35;13.23;;;;;;;;;;5071184;28;20118;-60
2023/05/23 05:51:59;;;;;;;23.17;14.27;;;;;;;;;;5071626;28;20035;-59
2023/05/23 05:54:24;;;;;;;27.05;14.63;;;;;;;;;;5072605;28;20025;-60
2023/05/23 05:56:50;;;;;;;24.52;14.25;;;;;;;;;;5072260;28;20369;-60
2023/05/23 05:59:15;;;;;;;19.00;12.07;;;;;;;;;;5071194;28;20024;-60
2023/05/23 06:01:41;;;;;;;22.00;12.90;;;;;;;;;;5071933;28;20056;-63
2023/05/23 06:04:06;;;;;;;15.50;10.07;;;;;;;;;;5069048;28;20119;-59
2023/05/23 06:06:32;;;;;;;16.50;9.63;;;;;;;;;;5072175;28;20036;-60
2023/05/23 06:08:58;;;;;;;16.73;9.20;;;;;;;;;;5070685;28;20397;-60
2023/05/23 06:11:23;;;;;;;14.23;9.00;;;;;;;;;;5072409;28;20051;-57
2023/05/23 06:13:48;;;;;;;13.68;8.07;;;;;;;;;;5071771;28;20420;-58
2023/05/23 06:16:14;;;;;;;17.00;8.73;;;;;;;;;;5071224;28;20035;-59
2023/05/23 06:18:40;;;;;;;16.33;9.00;;;;;;;;;;5072025;28;20524;-59
2023/05/23 06:21:05;;;;;;;13.82;7.95;;;;;;;;;;5070003;28;20446;-58
2023/05/23 06:23:31;;;;;;;14.57;8.40;;;;;;;;;;5071137;28;20033;-60
2023/05/23 06:25:58;;;;;;;14.95;8.07;;;;;;;;;;5070458;28;20474;-60
2023/05/23 06:28:23;;;;;;;14.38;7.93;;;;;;;;;;5071765;28;20024;-60
2023/05/23 06:30:49;;;;;;;15.43;7.97;;;;;;;;;;5071893;28;20025;-59
2023/05/23 06:33:15;;;;;;;15.02;8.30;;;;;;;;;;5071028;28;20059;-59
2023/05/23 06:35:40;;;;;;;14.00;7.72;;;;;;;;;;5071533;28;20100;-60
2023/05/23 06:38:06;;;;;;;13.77;7.70;;;;;;;;;;5070906;28;20484;-60
2023/05/23 06:40:31;;;;;;;11.98;7.35;;;;;;;;;;5071528;28;20392;-59
2023/05/23 06:42:56;;;;;;;12.02;7.30;;;;;;;;;;5069896;28;20059;-60
2023/05/23 06:45:22;;;;;;;14.52;7.68;;;;;;;;;;5071347;28;20044;-60
2023/05/23 06:47:48;;;;;;;11.40;6.82;;;;;;;;;;5071651;28;20440;-61
2023/05/23 06:50:13;;;;;;;13.40;6.85;;;;;;;;;;5070812;28;20113;-61
2023/05/23 06:52:41;;;;;;;13.00;6.93;;;;;;;;;;5070599;28;20074;-61
2023/05/23 06:55:07;;;;;;;14.68;6.82;;;;;;;;;;5070757;28;20381;-61
2023/05/23 06:57:32;;;;;;;15.48;6.55;;;;;;;;;;5071375;28;20029;-61
2023/05/23 06:59:57;;;;;;;11.05;5.60;;;;;;;;;;5071070;28;20052;-60
2023/05/23 07:02:23;;;;;;;10.27;6.10;;;;;;;;;;5070532;28;20392;-60
2023/05/23 07:04:48;;;;;;;13.60;6.10;;;;;;;;;;5071497;28;20028;-60
2023/05/23 07:07:14;;;;;;;10.98;6.60;;;;;;;;;;5070614;28;20029;-60
2023/05/23 07:09:39;;;;;;;11.38;5.93;;;;;;;;;;5071577;28;20431;-60
2023/05/23 07:12:05;;;;;;;8.93;5.40;;;;;;;;;;5070698;28;20036;-60
2023/05/23 07:14:31;;;;;;;10.48;5.50;;;;;;;;;;5071503;28;20526;-60
2023/05/23 07:16:56;;;;;;;9.77;5.60;;;;;;;;;;5069207;28;20044;-60
2023/05/23 07:19:21;;;;;;;9.95;5.82;;;;;;;;;;5070187;28;20441;-60
2023/05/23 07:21:47;;;;;;;11.43;6.40;;;;;;;;;;5071197;28;20118;-60
2023/05/23 07:24:12;;;;;;;12.00;6.10;;;;;;;;;;5070545;28;20118;-60
2023/05/23 07:26:38;;;;;;;12.02;6.32;;;;;;;;;;5071131;28;20159;-60
2023/05/23 07:29:03;;;;;;;15.07;6.03;;;;;;;;;;5070332;28;20354;-60
2023/05/23 07:31:29;;;;;;;12.45;6.72;;;;;;;;;;5071348;28;20115;-60
2023/05/23 07:33:54;;;;;;;15.77;7.38;;;;;;;;;;5070437;28;20037;-60
2023/05/23 07:36:21;;;;;;;14.68;6.45;;;;;;;;;;5069886;28;20033;-60
2023/05/23 07:38:46;;;;;;;13.43;6.65;;;;;;;;;;5071142;28;20472;-60
2023/05/23 07:41:12;;;;;;;13.63;6.63;;;;;;;;;;5069847;28;20126;-60
2023/05/23 07:43:37;;;;;;;14.10;6.78;;;;;;;;;;5071243;28;20031;-60
2023/05/23 07:46:03;;;;;;;13.75;6.30;;;;;;;;;;5070167;28;20032;-60
2023/05/23 07:48:28;;;;;;;14.10;6.40;;;;;;;;;;5070228;28;20028;-60
2023/05/23 07:50:54;;;;;;;11.77;6.50;;;;;;;;;;5070957;28;20048;-60
2023/05/23 07:53:21;;;;;;;13.63;6.45;;;;;;;;;;5070361;28;20016;-60
2023/05/23 07:55:46;;;;;;;12.13;6.28;;;;;;;;;;5070998;28;20116;-60
2023/05/23 07:58:12;;;;;;;11.32;6.20;;;;;;;;;;5072070;28;20120;-60
2023/05/23 08:00:37;;;;;;;13.48;6.35;;;;;;;;;;5073310;28;20035;-60
2023/05/23 08:03:03;;;;;;;14.40;6.13;;;;;;;;;;5073592;28;20028;-60
2023/05/23 08:05:28;;;;;;;12.98;6.15;;;;;;;;;;5071796;28;20028;-61
2023/05/23 08:07:54;;;;;;;16.17;7.38;;;;;;;;;;5069748;28;20040;-58
2023/05/23 08:10:19;;;;;;;16.55;5.97;;;;;;;;;;5064465;28;20086;-60
2023/05/23 08:12:45;;;;;;;13.68;6.65;;;;;;;;;;5073420;28;20029;-60
2023/05/23 08:15:10;;;;;;;16.33;7.55;;;;;;;;;;5072622;28;20036;-60
2023/05/23 08:17:36;;;;;;;12.85;6.78;;;;;;;;;;5073972;28;20033;-61
2023/05/23 08:20:03;;;;;;;17.63;8.55;;;;;;;;;;5071108;28;20067;-62
2023/05/23 08:22:29;;;;;;;16.08;9.57;;;;;;;;;;5070700;28;20147;-61
2023/05/23 08:24:54;;;;;;;16.25;8.48;;;;;;;;;;5077168;28;20381;-62
2023/05/23 08:27:20;;;;;;;14.73;8.02;;;;;;;;;;5069123;28;20033;-61
2023/05/23 08:29:45;;;;;;;12.98;6.68;;;;;;;;;;5073474;28;20668;-61
2023/05/23 08:32:11;;;;;;;13.18;7.07;;;;;;;;;;5072397;28;20025;-60
2023/05/23 08:34:36;;;;;;;14.07;7.28;;;;;;;;;;5073785;28;20028;-61
2023/05/23 08:37:02;;;;;;;13.07;6.70;;;;;;;;;;5079703;28;20040;-62
2023/05/23 08:39:27;;;;;;;15.00;7.28;;;;;;;;;;5072490;28;20056;-61
2023/05/23 08:41:53;;;;;;;14.68;7.30;;;;;;;;;;5073084;28;20036;-61
2023/05/23 08:44:18;;;;;;;18.05;7.13;;;;;;;;;;5080378;28;20473;-61
2023/05/23 08:46:45;;;;;;;14.15;7.03;;;;;;;;;;5072742;28;20047;-61
2023/05/23 08:49:13;;;;;;;16.73;7.20;;;;;;;;;;5083675;28;20032;-61
2023/05/23 08:51:41;;;;;;;13.20;6.80;;;;;;;;;;5071679;28;20056;-61
2023/05/23 08:54:08;;;;;;;14.90;7.05;;;;;;;;;;5066412;28;20039;-61
2023/05/23 08:56:34;;;;;;;15.80;7.43;;;;;;;;;;5071283;28;20060;-62
2023/05/23 08:59:00;;;;;;;17.80;7.68;;;;;;;;;;5073364;28;20111;-66
2023/05/23 09:01:26;;;;;;;17.63;7.20;;;;;;;;;;5067617;28;20131;-61
2023/05/23 09:03:52;;;;;;;14.80;7.60;;;;;;;;;;5071553;28;20495;-60
2023/05/23 09:06:20;;;;;;;14.50;7.20;;;;;;;;;;5067147;28;20060;-63
2023/05/23 09:08:45;;;;;;;16.17;7.20;;;;;;;;;;5068356;28;20094;-60
2023/05/23 09:11:12;;;;;;;15.30;7.28;;;;;;;;;;5070890;28;20036;-61
2023/05/23 09:13:39;;;;;;;14.63;6.82;;;;;;;;;;5072072;28;20423;-63
2023/05/23 09:16:09;;;;;;;16.45;7.22;;;;;;;;;;5072372;28;20101;-61
2023/05/23 09:18:40;;;;;;;14.70;6.97;;;;;;;;;;5067616;28;20024;-62
2023/05/23 09:21:06;;;;;;;;;;;;;;;;;;5077188;28;20043;-58
2023/05/23 09:23:33;;;;;;;12.02;5.97;;;;;;;;;;5058394;28;19959;-59
2023/05/23 09:26:03;;;;;;;12.65;6.20;;;;;;;;;;5079455;28;20130;-61
2023/05/23 09:28:29;;;;;;;12.03;5.50;;;;;;;;;;5077491;28;20025;-61
2023/05/23 09:31:09;;;;;;;15.20;6.07;;;;;;;;;;5061547;28;20265;-61
2023/05/23 09:33:48;;;;;;;18.08;6.20;;;;;;;;;;5062892;28;20033;-61
2023/05/23 09:36:15;;;;;;;15.00;6.28;;;;;;;;;;5051919;28;20031;-61
2023/05/23 09:38:42;;;;;;;15.63;6.25;;;;;;;;;;5058954;28;20033;-61
2023/05/23 09:41:10;;;;;;;14.57;6.35;;;;;;;;;;5071479;28;20040;-60
2023/05/23 09:43:37;;;;;;;14.25;6.40;;;;;;;;;;5078653;28;20059;-59
2023/05/23 09:46:10;;;;;;;11.68;5.40;;;;;;;;;;5068831;28;20047;-59
2023/05/23 09:48:36;;;;;;;16.95;6.32;;;;;;;;;;5071395;28;20488;-61
2023/05/23 09:51:09;;;;;;;15.00;6.30;;;;;;;;;;5071193;28;20035;-61
2023/05/23 09:53:35;;;;;;;13.80;6.82;;;;;;;;;;5071291;28;20099;-60
2023/05/23 09:56:05;;;;;;;12.80;6.25;;;;;;;;;;5063571;28;20060;-60
2023/05/23 09:58:34;;;;;;;14.43;6.70;;;;;;;;;;5051420;28;20033;-60
2023/05/23 10:01:02;;;;;;;14.10;6.35;;;;;;;;;;5054871;28;20024;-60
2023/05/23 10:03:38;;;;;;;14.00;6.78;;;;;;;;;;5051651;28;20086;-60
2023/05/23 10:06:31;;;;;;;15.15;5.90;;;;;;;;;;5055601;28;20036;-59
2023/05/23 10:09:11;;;;;;;15.90;6.03;;;;;;;;;;5048557;28;20033;-59
2023/05/23 10:12:06;;;;;;;14.48;6.35;;;;;;;;;;5052990;28;20442;-59
2023/05/23 10:14:37;;;;;;;10.02;5.28;;;;;;;;;;5057585;28;20127;-59
2023/05/23 10:17:07;;;;;;;11.77;5.82;;;;;;;;;;5070039;28;20040;-60
2023/05/23 10:19:46;;;;;;;14.55;6.28;;;;;;;;;;5069608;28;20119;-60
2023/05/23 10:22:13;;;;;;;13.30;5.97;;;;;;;;;;5070054;28;20036;-60
2023/05/23 10:24:39;;;;;;;10.85;5.30;;;;;;;;;;5070793;28;20048;-60
2023/05/23 10:27:06;;;;;;;12.70;5.47;;;;;;;;;;5070213;28;20024;-60
2023/05/23 10:29:35;;;;;;;11.65;5.50;;;;;;;;;;5070798;28;20115;-58
2023/05/23 10:32:04;;;;;;;12.20;5.30;;;;;;;;;;5064551;28;20047;-60
2023/05/23 10:34:38;;;;;;;12.05;5.32;;;;;;;;;;5068899;28;20040;-60
2023/05/23 10:37:05;;;;;;;11.00;5.00;;;;;;;;;;5071689;28;20062;-60
2023/05/23 10:39:58;;;;;;;13.32;5.30;;;;;;;;;;5070860;28;20049;-60
2023/05/23 10:42:41;;;;;;;9.45;5.07;;;;;;;;;;5070899;28;20025;-60
2023/05/23 10:45:44;;;;;;;10.77;4.60;;;;;;;;;;5065642;28;21847;-60
2023/05/23 10:48:27;;;;;;;10.90;4.55;;;;;;;;;;5069083;28;20397;-60
2023/05/23 10:51:06;;;;;;;9.43;4.82;;;;;;;;;;5070154;28;20128;-60
2023/05/23 10:53:34;;;;;;;7.53;4.15;;;;;;;;;;5069784;28;20465;-60
2023/05/23 10:56:00;;;;;;;9.05;4.28;;;;;;;;;;5071550;28;20071;-60
2023/05/23 10:58:28;;;;;;;8.82;4.15;;;;;;;;;;5070318;28;20304;-60
2023/05/23 11:00:56;;;;;;;8.55;4.15;;;;;;;;;;5071149;28;20403;-60
2023/05/23 11:03:47;;;;;;;8.63;4.15;;;;;;;;;;5068450;28;20543;-60
2023/05/23 11:06:37;;;;;;;10.60;4.25;;;;;;;;;;5070634;28;20163;-60
2023/05/23 11:09:09;;;;;;;7.70;4.07;;;;;;;;;;5071217;28;20099;-60
2023/05/23 11:11:49;;;;;;;9.52;4.20;;;;;;;;;;5070820;28;20024;-60
2023/05/23 11:14:15;;;;;;;14.30;4.75;;;;;;;;;;5049941;28;20037;-60
2023/05/23 11:16:42;;;;;;;9.77;4.35;;;;;;;;;;5071216;28;20074;-60
2023/05/23 11:19:17;;;;;;;9.02;4.20;;;;;;;;;;5088725;28;20111;-60
2023/05/23 11:21:44;;;;;;;11.15;4.32;;;;;;;;;;5071274;28;20114;-60
2023/05/23 11:24:10;;;;;;;8.60;3.85;;;;;;;;;;5069446;28;20037;-60
2023/05/23 11:26:35;;;;;;;13.85;4.20;;;;;;;;;;5075815;28;20032;-59
2023/05/23 11:29:02;;;;;;;9.18;3.78;;;;;;;;;;5075935;28;20037;-60
2023/05/23 11:31:29;;;;;;;13.55;3.95;;;;;;;;;;5071027;28;20028;-60
2023/05/23 11:33:55;;;;;;;10.18;3.40;;;;;;;;;;5073985;28;20035;-60
2023/05/23 11:36:23;;;;;;;8.88;3.58;;;;;;;;;;5072702;28;20381;-60
2023/05/23 11:38:51;;;;;;;10.55;3.50;;;;;;;;;;5087287;28;20032;-60
2023/05/23 11:41:17;;;;;;;9.13;3.60;;;;;;;;;;5074279;28;20047;-61
2023/05/23 11:43:50;;;;;;;8.90;3.92;;;;;;;;;;5074097;28;20031;-61
2023/05/23 11:46:16;;;;;;;12.77;4.00;;;;;;;;;;5076227;28;20033;-60
2023/05/23 11:48:45;;;;;;;10.27;3.83;;;;;;;;;;5084463;28;20032;-60
2023/05/23 11:51:11;;;;;;;8.77;3.60;;;;;;;;;;5093646;28;20032;-60
2023/05/23 11:53:37;;;;;;;16.35;4.60;;;;;;;;;;5071981;28;20087;-60
2023/05/23 11:56:03;;;;;;;10.45;3.70;;;;;;;;;;5066725;28;20040;-60
2023/05/23 11:58:38;;;;;;;10.48;3.60;;;;;;;;;;5065076;28;20058;-60
2023/05/23 12:01:09;;;;;;;14.15;3.67;;;;;;;;;;5066077;28;20037;-60
2023/05/23 12:03:47;;;;;;;11.93;3.55;;;;;;;;;;5067955;28;20423;-60
2023/05/23 12:06:17;;;;;;;10.52;3.65;;;;;;;;;;5065473;28;20182;-61
2023/05/23 12:08:43;;;;;;;13.00;4.35;;;;;;;;;;5066614;28;20029;-60
2023/05/23 12:11:09;;;;;;;11.48;3.88;;;;;;;;;;5071410;28;20119;-60
2023/05/23 12:13:34;;;;;;;11.93;4.03;;;;;;;;;;5064422;28;20037;-59
2023/05/23 12:16:01;;;;;;;11.88;3.70;;;;;;;;;;5074095;28;20032;-58
2023/05/23 12:18:29;;;;;;;10.48;3.53;;;;;;;;;;5071959;28;20032;-59
2023/05/23 12:20:58;;;;;;;9.07;3.50;;;;;;;;;;5083152;28;20024;-58
2023/05/23 12:23:24;;;;;;;10.20;4.00;;;;;;;;;;5079667;28;20123;-58
2023/05/23 12:25:53;;;;;;;9.95;3.78;;;;;;;;;;5074240;28;20107;-58
2023/05/23 12:28:35;;;;;;;10.27;3.40;;;;;;;;;;5071905;28;20064;-58
2023/05/23 12:31:16;;;;;;;11.23;3.80;;;;;;;;;;5073386;28;20036;-59
2023/05/23 12:33:43;;;;;;;9.80;3.55;;;;;;;;;;5072967;28;20028;-55
2023/05/23 12:36:09;;;;;;;8.95;3.70;;;;;;;;;;5073763;28;20040;-57
2023/05/23 12:38:36;;;;;;;11.00;3.70;;;;;;;;;;5073167;28;20036;-55
2023/05/23 12:41:31;;;;;;;9.30;3.25;;;;;;;;;;5074169;28;20049;-59
2023/05/23 12:43:57;;;;;;;11.38;3.50;;;;;;;;;;5050149;28;20087;-58
2023/05/23 12:46:24;;;;;;;11.05;3.50;;;;;;;;;;5072201;28;20495;-55
2023/05/23 12:48:50;;;;;;;9.75;3.30;;;;;;;;;;5072621;28;20032;-57
2023/05/23 12:51:15;;;;;;;12.50;3.72;;;;;;;;;;5072982;28;20036;-61
2023/05/23 12:53:41;;;;;;;13.35;4.00;;;;;;;;;;5073742;28;20036;-59
2023/05/23 12:56:07;;;;;;;8.35;3.70;;;;;;;;;;5071244;28;20043;-58
2023/05/23 12:58:33;;;;;;;10.02;4.00;;;;;;;;;;5075865;28;20042;-60
2023/05/23 13:01:00;;;;;;;10.10;3.88;;;;;;;;;;5084293;28;20025;-57
2023/05/23 13:03:25;;;;;;;13.07;4.05;;;;;;;;;;5071215;28;20042;-58
2023/05/23 13:05:52;;;;;;;12.15;3.83;;;;;;;;;;5073502;28;20033;-56
2023/05/23 13:08:18;;;;;;;11.00;3.53;;;;;;;;;;5071107;28;20033;-59
2023/05/23 13:10:44;;;;;;;9.52;3.67;;;;;;;;;;5073384;28;20103;-58
2023/05/23 13:13:10;;;;;;;10.90;3.72;;;;;;;;;;5072227;28;20116;-58
2023/05/23 13:15:36;;;;;;;11.82;3.40;;;;;;;;;;5052298;28;20108;-58
2023/05/23 13:18:02;;;;;;;9.68;3.90;;;;;;;;;;5076355;28;20028;-58
2023/05/23 13:20:29;;;;;;;12.80;4.00;;;;;;;;;;5087504;28;20039;-59
2023/05/23 13:22:56;;;;;;;14.90;3.60;;;;;;;;;;5069736;28;20465;-58
2023/05/23 13:25:21;;;;;;;10.50;3.60;;;;;;;;;;5072075;28;20032;-59
2023/05/23 13:27:47;;;;;;;10.77;3.72;;;;;;;;;;5072484;28;20097;-58
2023/05/23 13:30:13;;;;;;;9.27;3.50;;;;;;;;;;5072881;28;20032;-60
2023/05/23 13:32:38;;;;;;;8.30;3.38;;;;;;;;;;5072757;28;20041;-60
2023/05/23 13:35:04;;;;;;;7.63;3.17;;;;;;;;;;5089904;28;20036;-59
2023/05/23 13:37:29;;;;;;;8.80;3.60;;;;;;;;;;5074856;28;20498;-60
2023/05/23 13:39:55;;;;;;;11.85;3.10;;;;;;;;;;5072404;28;20052;-59
2023/05/23 13:42:20;;;;;;;7.00;2.90;;;;;;;;;;5070158;28;20028;-60
2023/05/23 13:44:46;;;;;;;11.77;3.40;;;;;;;;;;5069664;28;20068;-61
2023/05/23 13:47:13;;;;;;;9.73;3.75;;;;;;;;;;5067077;28;20057;-60
2023/05/23 13:49:38;;;;;;;8.38;3.30;;;;;;;;;;5070160;28;20020;-60
2023/05/23 13:52:04;;;;;;;8.57;3.15;;;;;;;;;;5070538;28;20041;-59
2023/05/23 13:54:30;;;;;;;11.57;3.35;;;;;;;;;;5070614;28;20040;-60
2023/05/23 13:56:56;;;;;;;9.77;3.25;;;;;;;;;;5072345;28;20077;-60
2023/05/23 13:59:21;;;;;;;7.35;3.22;;;;;;;;;;5071735;28;20024;-60
2023/05/23 14:01:47;;;;;;;8.93;3.10;;;;;;;;;;5068810;28;20051;-60
2023/05/23 14:04:12;;;;;;;12.13;3.17;;;;;;;;;;5072036;28;20082;-59
2023/05/23 14:06:38;;;;;;;11.40;3.17;;;;;;;;;;5070781;28;20578;-61
2023/05/23 14:09:04;;;;;;;8.20;3.35;;;;;;;;;;5071835;28;20091;-61
2023/05/23 14:11:30;;;;;;;10.52;3.20;;;;;;;;;;5070880;28;20043;-60
2023/05/23 14:13:55;;;;;;;9.00;3.05;;;;;;;;;;5069773;28;20028;-60
2023/05/23 14:16:21;;;;;;;9.93;3.55;;;;;;;;;;5071163;28;20522;-60
2023/05/23 14:18:46;;;;;;;9.00;3.20;;;;;;;;;;5072224;28;20025;-60
2023/05/23 14:21:11;;;;;;;9.18;3.20;;;;;;;;;;5070730;28;20024;-60
2023/05/23 14:23:37;;;;;;;7.00;2.80;;;;;;;;;;5069839;28;20029;-60
2023/05/23 14:26:02;;;;;;;9.05;3.20;;;;;;;;;;5071747;28;20028;-61
2023/05/23 14:28:28;;;;;;;9.95;3.05;;;;;;;;;;5070878;28;20029;-61
2023/05/23 14:30:54;;;;;;;8.73;2.78;;;;;;;;;;5070478;28;20031;-61
2023/05/23 14:33:20;;;;;;;8.23;2.70;;;;;;;;;;5060304;28;20060;-61